createdAt,value
2022-09-15T00:09:58.718Z,12.31
2022-09-15T00:40:01.470Z,12.02
2022-09-15T01:10:05.394Z,11.74
2022-09-15T01:40:08.214Z,11.53
2022-09-15T02:10:12.609Z,11.33
2022-09-15T02:40:15.376Z,11.11
2022-09-15T03:10:19.417Z,10.93
2022-09-15T03:40:22.405Z,10.64
2022-09-15T04:10:25.721Z,10.81
2022-09-15T04:40:28.737Z,11.00
2022-09-15T05:10:32.374Z,11.28
2022-09-15T05:40:35.167Z,11.68
2022-09-15T06:10:39.332Z,12.17
2022-09-15T06:40:42.042Z,12.63
2022-09-15T07:10:46.154Z,13.37
2022-09-15T07:40:48.872Z,14.26
2022-09-15T08:10:52.698Z,15.36
2022-09-15T08:40:55.390Z,16.08
2022-09-15T09:10:59.177Z,16.58
2022-09-15T09:41:02.732Z,17.43
2022-09-15T10:11:06.541Z,17.76
2022-09-15T10:41:09.558Z,18.11
2022-09-15T11:11:13.468Z,17.30
2022-09-15T11:41:16.764Z,17.33
2022-09-15T12:11:22.967Z,17.76
2022-09-15T12:41:26.899Z,17.37
2022-09-15T13:11:31.289Z,16.69
2022-09-15T13:41:34.453Z,16.24
2022-09-15T14:11:37.808Z,16.80
2022-09-15T14:41:41.266Z,16.80
2022-09-15T15:11:44.539Z,16.60
2022-09-15T16:11:52.669Z,15.49
2022-09-15T16:41:56.764Z,15.00
2022-09-15T17:12:00.343Z,14.51
2022-09-15T17:42:03.556Z,13.80
2022-09-15T18:12:07.492Z,13.19
2022-09-15T18:42:10.657Z,13.04
2022-09-15T19:12:13.756Z,13.02
2022-09-15T19:42:17.663Z,12.61
2022-09-15T20:12:22.296Z,12.52
2022-09-15T20:42:26.537Z,12.07
2022-09-15T21:12:30.423Z,11.72
2022-09-15T21:42:34.775Z,11.65
2022-09-15T22:12:38.201Z,11.30
2022-09-15T22:42:41.005Z,11.06
2022-09-15T23:12:46.454Z,11.02
2022-09-15T23:42:49.310Z,10.60
